Time;durP1;ratioP1;P1;durP2;ratioP2;P2;SDS_P1;SDS_P2;PMS_P1;PMS_P2;Temp;Humidity;BMP_temperature;BMP_pressure;BME280_temperature;BME280_humidity;BME280_pressure;Samples;Min_cycle;Max_cycle;Signal;HPM_P1;HPM_P2
2022/07/16 00:04:43;;;;;;;5.6;3.1;;;;;;;18.07;45.80566;95617.35;;;;
2022/07/16 00:05:44;;;;;;;5.6;3.1;;;;;;;18.07;45.80566;95617.35;;;;
2022/07/16 00:06:44;;;;;;;5.6;3.1;;;;;;;18.07;45.80566;95617.35;;;;
2022/07/16 00:07:45;;;;;;;5.6;3.1;;;;;;;18.07;45.80566;95617.35;;;;
2022/07/16 00:08:45;;;;;;;5.6;3.1;;;;;;;18.07;45.80566;95617.35;;;;
2022/07/16 00:09:47;;;;;;;5.6;3.1;;;;;;;18.07;45.80566;95617.35;;;;
2022/07/16 00:10:47;;;;;;;5.6;3.1;;;;;;;18.07;45.80566;95617.35;;;;
2022/07/16 00:11:48;;;;;;;4;3.35;;;;;;;17.77;46.23828;95607.59;;;;
2022/07/16 00:12:48;;;;;;;4;3.35;;;;;;;17.77;46.23828;95607.59;;;;
2022/07/16 00:13:49;;;;;;;4;3.35;;;;;;;17.77;46.23828;95607.59;;;;
2022/07/16 00:14:49;;;;;;;4;3.35;;;;;;;17.77;46.23828;95607.59;;;;
2022/07/16 00:15:50;;;;;;;4;3.35;;;;;;;17.77;46.23828;95607.59;;;;
2022/07/16 00:16:51;;;;;;;4;3.35;;;;;;;17.77;46.23828;95607.59;;;;
2022/07/16 00:19:15;;;;;;;4;3.35;;;;;;;17.77;46.23828;95607.59;;;;
2022/07/16 00:20:16;;;;;;;4;3.35;;;;;;;17.77;46.23828;95607.59;;;;
2022/07/16 00:21:16;;;;;;;4;3.35;;;;;;;17.77;46.23828;95607.59;;;;
2022/07/16 00:22:17;;;;;;;4;3.35;;;;;;;17.77;46.23828;95607.59;;;;
2022/07/16 00:23:17;;;;;;;4;3.35;;;;;;;17.77;46.23828;95607.59;;;;
2022/07/16 00:24:18;;;;;;;4;3.35;;;;;;;17.77;46.23828;95607.59;;;;
2022/07/16 00:25:19;;;;;;;4;3.35;;;;;;;17.77;46.23828;95607.59;;;;
2022/07/16 00:26:20;;;;;;;4;3.35;;;;;;;17.77;46.23828;95607.59;;;;
2022/07/16 00:27:20;;;;;;;4;3.35;;;;;;;17.77;46.23828;95607.59;;;;
2022/07/16 00:28:21;;;;;;;4;3.35;;;;;;;17.77;46.23828;95607.59;;;;
2022/07/16 00:29:22;;;;;;;4;3.35;;;;;;;17.77;46.23828;95607.59;;;;
2022/07/16 00:30:23;;;;;;;4;3.35;;;;;;;17.77;46.23828;95607.59;;;;
2022/07/16 00:31:23;;;;;;;4;3.35;;;;;;;17.77;46.23828;95607.59;;;;
2022/07/16 00:32:24;;;;;;;4;3.35;;;;;;;17.77;46.23828;95607.59;;;;
2022/07/16 00:33:24;;;;;;;5.25;3.5;;;;;;;17.34;47.27344;95603.91;;;;
2022/07/16 00:34:25;;;;;;;5.25;3.5;;;;;;;17.34;47.27344;95603.91;;;;
2022/07/16 00:35:27;;;;;;;5.25;3.5;;;;;;;17.34;47.27344;95603.91;;;;
2022/07/16 00:36:28;;;;;;;5.25;3.5;;;;;;;17.34;47.27344;95603.91;;;;
2022/07/16 00:37:28;;;;;;;5.25;3.5;;;;;;;17.34;47.27344;95603.91;;;;
2022/07/16 00:38:29;;;;;;;5.25;3.5;;;;;;;17.34;47.27344;95603.91;;;;
2022/07/16 00:39:30;;;;;;;5.25;3.5;;;;;;;17.34;47.27344;95603.91;;;;
2022/07/16 00:40:30;;;;;;;5.25;3.5;;;;;;;17.34;47.27344;95603.91;;;;
2022/07/16 00:41:31;;;;;;;5.25;3.5;;;;;;;17.34;47.27344;95603.91;;;;
2022/07/16 00:42:32;;;;;;;5.25;3.5;;;;;;;17.34;47.27344;95603.91;;;;
2022/07/16 00:43:32;;;;;;;3.35;3;;;;;;;17.25;47.5166;95606.7;;;;
2022/07/16 00:44:45;;;;;;;3.35;3;;;;;;;17.25;47.5166;95606.7;;;;
2022/07/16 00:45:45;;;;;;;3.35;3;;;;;;;17.25;47.5166;95606.7;;;;
2022/07/16 00:46:46;;;;;;;3.35;3;;;;;;;17.25;47.5166;95606.7;;;;
2022/07/16 00:47:48;;;;;;;3.35;3;;;;;;;17.25;47.5166;95606.7;;;;
2022/07/16 00:48:49;;;;;;;3.35;3;;;;;;;17.25;47.5166;95606.7;;;;
2022/07/16 00:49:49;;;;;;;3.35;3;;;;;;;17.25;47.5166;95606.7;;;;
2022/07/16 00:50:50;;;;;;;3.35;3;;;;;;;17.25;47.5166;95606.7;;;;
2022/07/16 00:51:51;;;;;;;3.35;3;;;;;;;17.25;47.5166;95606.7;;;;
2022/07/16 00:52:52;;;;;;;3.35;3;;;;;;;17.25;47.5166;95606.7;;;;
2022/07/16 00:53:53;;;;;;;3.55;3.2;;;;;;;17.1;47.95117;95599.41;;;;
2022/07/16 00:54:54;;;;;;;3.55;3.2;;;;;;;17.1;47.95117;95599.41;;;;
2022/07/16 00:55:55;;;;;;;3.55;3.2;;;;;;;17.1;47.95117;95599.41;;;;
2022/07/16 00:56:55;;;;;;;3.55;3.2;;;;;;;17.1;47.95117;95599.41;;;;
2022/07/16 00:57:56;;;;;;;3.55;3.2;;;;;;;17.1;47.95117;95599.41;;;;
2022/07/16 00:58:56;;;;;;;3.55;3.2;;;;;;;17.1;47.95117;95599.41;;;;
2022/07/16 00:59:57;;;;;;;3.55;3.2;;;;;;;17.1;47.95117;95599.41;;;;
2022/07/16 01:00:58;;;;;;;3.55;3.2;;;;;;;17.1;47.95117;95599.41;;;;
2022/07/16 01:01:59;;;;;;;3.55;3.2;;;;;;;17.1;47.95117;95599.41;;;;
2022/07/16 01:03:00;;;;;;;3.55;3.2;;;;;;;17.1;47.95117;95599.41;;;;
2022/07/16 01:04:04;;;;;;;3.55;3.2;;;;;;;17.1;47.95117;95599.41;;;;
2022/07/16 01:05:07;;;;;;;3.5;3.05;;;;;;;17.06;48.34277;95610.69;;;;
2022/07/16 01:06:08;;;;;;;3.5;3.05;;;;;;;17.06;48.34277;95610.69;;;;
2022/07/16 01:07:10;;;;;;;3.5;3.05;;;;;;;17.06;48.34277;95610.69;;;;
2022/07/16 01:08:11;;;;;;;3.5;3.05;;;;;;;17.06;48.34277;95610.69;;;;
2022/07/16 01:09:12;;;;;;;3.5;3.05;;;;;;;17.06;48.34277;95610.69;;;;
2022/07/16 01:10:14;;;;;;;3.5;3.05;;;;;;;17.06;48.34277;95610.69;;;;
2022/07/16 01:11:15;;;;;;;3.5;3.05;;;;;;;17.06;48.34277;95610.69;;;;
2022/07/16 01:12:19;;;;;;;3.5;3.05;;;;;;;17.06;48.34277;95610.69;;;;
2022/07/16 01:13:20;;;;;;;3.5;3.05;;;;;;;17.06;48.34277;95610.69;;;;
2022/07/16 01:14:21;;;;;;;3.5;3.05;;;;;;;17.06;48.34277;95610.69;;;;
2022/07/16 01:15:22;;;;;;;4.3;3.45;;;;;;;16.97;48.7627;95607.23;;;;
2022/07/16 01:16:22;;;;;;;4.3;3.45;;;;;;;16.97;48.7627;95607.23;;;;
2022/07/16 01:17:23;;;;;;;4.3;3.45;;;;;;;16.97;48.7627;95607.23;;;;
2022/07/16 01:18:24;;;;;;;4.3;3.45;;;;;;;16.97;48.7627;95607.23;;;;
2022/07/16 01:19:25;;;;;;;4.3;3.45;;;;;;;16.97;48.7627;95607.23;;;;
2022/07/16 01:20:25;;;;;;;4.3;3.45;;;;;;;16.97;48.7627;95607.23;;;;
2022/07/16 01:21:26;;;;;;;4.3;3.45;;;;;;;16.97;48.7627;95607.23;;;;
2022/07/16 01:22:27;;;;;;;4.3;3.45;;;;;;;16.97;48.7627;95607.23;;;;
2022/07/16 01:23:27;;;;;;;4.3;3.45;;;;;;;16.97;48.7627;95607.23;;;;
2022/07/16 01:24:28;;;;;;;4.3;3.45;;;;;;;16.97;48.7627;95607.23;;;;
2022/07/16 01:25:28;;;;;;;4.3;3.45;;;;;;;16.97;48.7627;95607.23;;;;
2022/07/16 01:26:29;;;;;;;3.8;3.4;;;;;;;16.8;49.32715;95614.83;;;;
2022/07/16 01:27:29;;;;;;;3.8;3.4;;;;;;;16.8;49.32715;95614.83;;;;
2022/07/16 01:28:30;;;;;;;3.8;3.4;;;;;;;16.8;49.32715;95614.83;;;;
2022/07/16 01:29:30;;;;;;;3.8;3.4;;;;;;;16.8;49.32715;95614.83;;;;
2022/07/16 01:30:31;;;;;;;3.8;3.4;;;;;;;16.8;49.32715;95614.83;;;;
2022/07/16 01:31:31;;;;;;;3.8;3.4;;;;;;;16.8;49.32715;95614.83;;;;
2022/07/16 01:32:32;;;;;;;3.8;3.4;;;;;;;16.8;49.32715;95614.83;;;;
2022/07/16 01:33:32;;;;;;;3.8;3.4;;;;;;;16.8;49.32715;95614.83;;;;
2022/07/16 01:34:36;;;;;;;3.8;3.4;;;;;;;16.8;49.32715;95614.83;;;;
2022/07/16 01:35:38;;;;;;;3.8;3.4;;;;;;;16.8;49.32715;95614.83;;;;
2022/07/16 01:36:38;;;;;;;3.95;3.55;;;;;;;16.5;50.05176;95625.37;;;;
2022/07/16 01:37:39;;;;;;;3.95;3.55;;;;;;;16.5;50.05176;95625.37;;;;
2022/07/16 01:38:40;;;;;;;3.95;3.55;;;;;;;16.5;50.05176;95625.37;;;;
2022/07/16 01:39:43;;;;;;;3.95;3.55;;;;;;;16.5;50.05176;95625.37;;;;
2022/07/16 01:40:44;;;;;;;3.95;3.55;;;;;;;16.5;50.05176;95625.37;;;;
2022/07/16 01:41:44;;;;;;;3.95;3.55;;;;;;;16.5;50.05176;95625.37;;;;
2022/07/16 01:42:49;;;;;;;3.95;3.55;;;;;;;16.5;50.05176;95625.37;;;;
2022/07/16 01:43:49;;;;;;;3.95;3.55;;;;;;;16.5;50.05176;95625.37;;;;
2022/07/16 01:44:50;;;;;;;3.95;3.55;;;;;;;16.5;50.05176;95625.37;;;;
2022/07/16 01:45:51;;;;;;;3.95;3.55;;;;;;;16.5;50.05176;95625.37;;;;
2022/07/16 01:46:53;;;;;;;3.95;3.55;;;;;;;16.5;50.05176;95625.37;;;;
2022/07/16 01:47:55;;;;;;;3.75;3.4;;;;;;;16.34;50.71484;95627.45;;;;
2022/07/16 01:48:57;;;;;;;3.75;3.4;;;;;;;16.34;50.71484;95627.45;;;;
2022/07/16 01:49:58;;;;;;;3.75;3.4;;;;;;;16.34;50.71484;95627.45;;;;
2022/07/16 01:50:58;;;;;;;3.75;3.4;;;;;;;16.34;50.71484;95627.45;;;;
2022/07/16 01:51:59;;;;;;;3.75;3.4;;;;;;;16.34;50.71484;95627.45;;;;
2022/07/16 01:53:04;;;;;;;3.75;3.4;;;;;;;16.34;50.71484;95627.45;;;;
2022/07/16 01:54:05;;;;;;;3.75;3.4;;;;;;;16.34;50.71484;95627.45;;;;
2022/07/16 01:55:05;;;;;;;3.75;3.4;;;;;;;16.34;50.71484;95627.45;;;;
2022/07/16 01:56:07;;;;;;;3.75;3.4;;;;;;;16.34;50.71484;95627.45;;;;
2022/07/16 01:57:07;;;;;;;3.75;3.4;;;;;;;16.34;50.71484;95627.45;;;;
2022/07/16 01:58:08;;;;;;;5.35;3.6;;;;;;;16.3;51.23633;95626.43;;;;
2022/07/16 01:59:11;;;;;;;5.35;3.6;;;;;;;16.3;51.23633;95626.43;;;;
2022/07/16 02:00:11;;;;;;;5.35;3.6;;;;;;;16.3;51.23633;95626.43;;;;
2022/07/16 02:01:13;;;;;;;5.35;3.6;;;;;;;16.3;51.23633;95626.43;;;;
2022/07/16 02:02:13;;;;;;;5.35;3.6;;;;;;;16.3;51.23633;95626.43;;;;
2022/07/16 02:03:14;;;;;;;5.35;3.6;;;;;;;16.3;51.23633;95626.43;;;;
2022/07/16 02:04:14;;;;;;;5.35;3.6;;;;;;;16.3;51.23633;95626.43;;;;
2022/07/16 02:05:15;;;;;;;5.35;3.6;;;;;;;16.3;51.23633;95626.43;;;;
2022/07/16 02:06:16;;;;;;;5.35;3.6;;;;;;;16.3;51.23633;95626.43;;;;
2022/07/16 02:07:16;;;;;;;5.35;3.6;;;;;;;16.3;51.23633;95626.43;;;;
2022/07/16 02:08:17;;;;;;;5.35;3.6;;;;;;;16.3;51.23633;95626.43;;;;
2022/07/16 02:09:17;;;;;;;5.9;3.45;;;;;;;16.29;51.49805;95619.48;;;;
2022/07/16 02:10:18;;;;;;;5.9;3.45;;;;;;;16.29;51.49805;95619.48;;;;
2022/07/16 02:11:19;;;;;;;5.9;3.45;;;;;;;16.29;51.49805;95619.48;;;;
2022/07/16 02:12:20;;;;;;;5.9;3.45;;;;;;;16.29;51.49805;95619.48;;;;
2022/07/16 02:13:20;;;;;;;5.9;3.45;;;;;;;16.29;51.49805;95619.48;;;;
2022/07/16 02:14:21;;;;;;;5.9;3.45;;;;;;;16.29;51.49805;95619.48;;;;
2022/07/16 02:15:22;;;;;;;5.9;3.45;;;;;;;16.29;51.49805;95619.48;;;;
2022/07/16 02:16:22;;;;;;;5.9;3.45;;;;;;;16.29;51.49805;95619.48;;;;
2022/07/16 02:17:23;;;;;;;5.9;3.45;;;;;;;16.29;51.49805;95619.48;;;;
2022/07/16 02:18:23;;;;;;;5.9;3.45;;;;;;;16.29;51.49805;95619.48;;;;
2022/07/16 02:19:24;;;;;;;6.750001;3.95;;;;;;;15.98;51.99023;95626.89;;;;
2022/07/16 02:20:24;;;;;;;6.750001;3.95;;;;;;;15.98;51.99023;95626.89;;;;
2022/07/16 02:21:25;;;;;;;6.750001;3.95;;;;;;;15.98;51.99023;95626.89;;;;
2022/07/16 02:22:26;;;;;;;6.750001;3.95;;;;;;;15.98;51.99023;95626.89;;;;
2022/07/16 02:23:26;;;;;;;6.750001;3.95;;;;;;;15.98;51.99023;95626.89;;;;
2022/07/16 02:24:27;;;;;;;6.750001;3.95;;;;;;;15.98;51.99023;95626.89;;;;
2022/07/16 02:25:28;;;;;;;6.750001;3.95;;;;;;;15.98;51.99023;95626.89;;;;
2022/07/16 02:26:28;;;;;;;6.750001;3.95;;;;;;;15.98;51.99023;95626.89;;;;
2022/07/16 02:27:29;;;;;;;6.750001;3.95;;;;;;;15.98;51.99023;95626.89;;;;
2022/07/16 02:28:30;;;;;;;6.750001;3.95;;;;;;;15.98;51.99023;95626.89;;;;
2022/07/16 02:29:30;;;;;;;6.750001;3.95;;;;;;;15.98;51.99023;95626.89;;;;
2022/07/16 02:30:31;;;;;;;4.8;3.85;;;;;;;15.72;52.58203;95627.95;;;;
2022/07/16 02:31:32;;;;;;;4.8;3.85;;;;;;;15.72;52.58203;95627.95;;;;
2022/07/16 02:32:32;;;;;;;4.8;3.85;;;;;;;15.72;52.58203;95627.95;;;;
2022/07/16 02:33:33;;;;;;;4.8;3.85;;;;;;;15.72;52.58203;95627.95;;;;
2022/07/16 02:34:33;;;;;;;4.8;3.85;;;;;;;15.72;52.58203;95627.95;;;;
2022/07/16 02:35:34;;;;;;;4.8;3.85;;;;;;;15.72;52.58203;95627.95;;;;
2022/07/16 02:36:35;;;;;;;4.8;3.85;;;;;;;15.72;52.58203;95627.95;;;;
2022/07/16 02:37:36;;;;;;;4.8;3.85;;;;;;;15.72;52.58203;95627.95;;;;
2022/07/16 02:38:37;;;;;;;4.8;3.85;;;;;;;15.72;52.58203;95627.95;;;;
2022/07/16 02:39:37;;;;;;;4.8;3.85;;;;;;;15.72;52.58203;95627.95;;;;
2022/07/16 02:40:38;;;;;;;5.15;3.9;;;;;;;15.38;53.25488;95630.94;;;;
2022/07/16 02:41:40;;;;;;;5.15;3.9;;;;;;;15.38;53.25488;95630.94;;;;
2022/07/16 02:42:40;;;;;;;5.15;3.9;;;;;;;15.38;53.25488;95630.94;;;;
2022/07/16 02:43:42;;;;;;;5.15;3.9;;;;;;;15.38;53.25488;95630.94;;;;
2022/07/16 02:44:42;;;;;;;5.15;3.9;;;;;;;15.38;53.25488;95630.94;;;;
2022/07/16 02:45:43;;;;;;;5.15;3.9;;;;;;;15.38;53.25488;95630.94;;;;
2022/07/16 02:46:43;;;;;;;5.15;3.9;;;;;;;15.38;53.25488;95630.94;;;;
2022/07/16 02:47:44;;;;;;;5.15;3.9;;;;;;;15.38;53.25488;95630.94;;;;
2022/07/16 02:48:44;;;;;;;5.15;3.9;;;;;;;15.38;53.25488;95630.94;;;;
2022/07/16 02:49:46;;;;;;;5.15;3.9;;;;;;;15.38;53.25488;95630.94;;;;
2022/07/16 02:50:47;;;;;;;5.15;3.9;;;;;;;15.38;53.25488;95630.94;;;;
2022/07/16 02:51:47;;;;;;;5.35;4.25;;;;;;;15.14;53.97949;95627.17;;;;
2022/07/16 02:52:48;;;;;;;5.35;4.25;;;;;;;15.14;53.97949;95627.17;;;;
2022/07/16 02:53:49;;;;;;;5.35;4.25;;;;;;;15.14;53.97949;95627.17;;;;
2022/07/16 02:54:49;;;;;;;5.35;4.25;;;;;;;15.14;53.97949;95627.17;;;;
2022/07/16 02:55:50;;;;;;;5.35;4.25;;;;;;;15.14;53.97949;95627.17;;;;
2022/07/16 02:56:51;;;;;;;5.35;4.25;;;;;;;15.14;53.97949;95627.17;;;;
2022/07/16 02:57:51;;;;;;;5.35;4.25;;;;;;;15.14;53.97949;95627.17;;;;
2022/07/16 02:58:52;;;;;;;5.35;4.25;;;;;;;15.14;53.97949;95627.17;;;;
2022/07/16 02:59:53;;;;;;;5.35;4.25;;;;;;;15.14;53.97949;95627.17;;;;
2022/07/16 03:00:54;;;;;;;5.35;4.25;;;;;;;15.14;53.97949;95627.17;;;;
2022/07/16 03:01:55;;;;;;;5.35;4.25;;;;;;;15.14;53.97949;95627.17;;;;
2022/07/16 03:02:55;;;;;;;5.6;4.3;;;;;;;14.89;54.6377;95638.03;;;;
2022/07/16 03:03:57;;;;;;;5.6;4.3;;;;;;;14.89;54.6377;95638.03;;;;
2022/07/16 03:04:57;;;;;;;5.6;4.3;;;;;;;14.89;54.6377;95638.03;;;;
2022/07/16 03:05:57;;;;;;;5.6;4.3;;;;;;;14.89;54.6377;95638.03;;;;
2022/07/16 03:06:58;;;;;;;5.6;4.3;;;;;;;14.89;54.6377;95638.03;;;;
2022/07/16 03:07:59;;;;;;;5.6;4.3;;;;;;;14.89;54.6377;95638.03;;;;
2022/07/16 03:08:59;;;;;;;5.6;4.3;;;;;;;14.89;54.6377;95638.03;;;;
2022/07/16 03:10:00;;;;;;;5.6;4.3;;;;;;;14.89;54.6377;95638.03;;;;
2022/07/16 03:11:00;;;;;;;5.6;4.3;;;;;;;14.89;54.6377;95638.03;;;;
2022/07/16 03:12:01;;;;;;;5.6;4.3;;;;;;;14.89;54.6377;95638.03;;;;
2022/07/16 03:13:01;;;;;;;5.199999;4.25;;;;;;;14.73;55.01172;95651.59;;;;
2022/07/16 03:14:02;;;;;;;5.199999;4.25;;;;;;;14.73;55.01172;95651.59;;;;
2022/07/16 03:15:03;;;;;;;5.199999;4.25;;;;;;;14.73;55.01172;95651.59;;;;
2022/07/16 03:16:04;;;;;;;5.199999;4.25;;;;;;;14.73;55.01172;95651.59;;;;
2022/07/16 03:17:05;;;;;;;5.199999;4.25;;;;;;;14.73;55.01172;95651.59;;;;
2022/07/16 03:18:05;;;;;;;5.199999;4.25;;;;;;;14.73;55.01172;95651.59;;;;
2022/07/16 03:19:06;;;;;;;5.199999;4.25;;;;;;;14.73;55.01172;95651.59;;;;
2022/07/16 03:20:07;;;;;;;5.199999;4.25;;;;;;;14.73;55.01172;95651.59;;;;
2022/07/16 03:21:09;;;;;;;5.199999;4.25;;;;;;;14.73;55.01172;95651.59;;;;
2022/07/16 03:22:09;;;;;;;5.199999;4.25;;;;;;;14.73;55.01172;95651.59;;;;
2022/07/16 03:23:10;;;;;;;5.199999;4.25;;;;;;;14.73;55.01172;95651.59;;;;
2022/07/16 03:24:10;;;;;;;4.950001;4.149999;;;;;;;14.5;55.45215;95645.28;;;;
2022/07/16 03:25:11;;;;;;;4.950001;4.149999;;;;;;;14.5;55.45215;95645.28;;;;
2022/07/16 03:26:13;;;;;;;4.950001;4.149999;;;;;;;14.5;55.45215;95645.28;;;;
2022/07/16 03:27:13;;;;;;;4.950001;4.149999;;;;;;;14.5;55.45215;95645.28;;;;
2022/07/16 03:28:14;;;;;;;4.950001;4.149999;;;;;;;14.5;55.45215;95645.28;;;;
2022/07/16 03:29:15;;;;;;;4.950001;4.149999;;;;;;;14.5;55.45215;95645.28;;;;
2022/07/16 03:30:15;;;;;;;4.950001;4.149999;;;;;;;14.5;55.45215;95645.28;;;;
2022/07/16 03:31:17;;;;;;;4.950001;4.149999;;;;;;;14.5;55.45215;95645.28;;;;
2022/07/16 03:32:17;;;;;;;4.950001;4.149999;;;;;;;14.5;55.45215;95645.28;;;;
2022/07/16 03:33:18;;;;;;;4.950001;4.149999;;;;;;;14.5;55.45215;95645.28;;;;
2022/07/16 03:34:18;;;;;;;5.5;4.2;;;;;;;14.39;55.75586;95658.45;;;;
2022/07/16 03:35:19;;;;;;;5.5;4.2;;;;;;;14.39;55.75586;95658.45;;;;
2022/07/16 03:36:20;;;;;;;5.5;4.2;;;;;;;14.39;55.75586;95658.45;;;;
2022/07/16 03:37:20;;;;;;;5.5;4.2;;;;;;;14.39;55.75586;95658.45;;;;
2022/07/16 03:39:25;;;;;;;5.5;4.2;;;;;;;14.39;55.75586;95658.45;;;;
2022/07/16 03:40:26;;;;;;;5.5;4.2;;;;;;;14.39;55.75586;95658.45;;;;
2022/07/16 03:41:28;;;;;;;5.5;4.2;;;;;;;14.39;55.75586;95658.45;;;;
2022/07/16 03:42:29;;;;;;;5.5;4.2;;;;;;;14.39;55.75586;95658.45;;;;
2022/07/16 03:43:30;;;;;;;5.5;4.2;;;;;;;14.39;55.75586;95658.45;;;;
2022/07/16 03:44:30;;;;;;;5.5;4.2;;;;;;;14.39;55.75586;95658.45;;;;
2022/07/16 03:45:31;;;;;;;5;4.5;;;;;;;14.27;56.11133;95664.22;;;;
2022/07/16 03:46:31;;;;;;;5;4.5;;;;;;;14.27;56.11133;95664.22;;;;
2022/07/16 03:47:32;;;;;;;5;4.5;;;;;;;14.27;56.11133;95664.22;;;;
2022/07/16 03:48:32;;;;;;;5;4.5;;;;;;;14.27;56.11133;95664.22;;;;
2022/07/16 03:49:33;;;;;;;5;4.5;;;;;;;14.27;56.11133;95664.22;;;;
2022/07/16 03:50:33;;;;;;;5;4.5;;;;;;;14.27;56.11133;95664.22;;;;
2022/07/16 03:51:34;;;;;;;5;4.5;;;;;;;14.27;56.11133;95664.22;;;;
2022/07/16 03:52:35;;;;;;;5;4.5;;;;;;;14.27;56.11133;95664.22;;;;
2022/07/16 03:53:35;;;;;;;5;4.5;;;;;;;14.27;56.11133;95664.22;;;;
2022/07/16 03:54:37;;;;;;;5;4.5;;;;;;;14.27;56.11133;95664.22;;;;
2022/07/16 03:55:37;;;;;;;4.750001;4.35;;;;;;;14.26;56.50293;95665.69;;;;
2022/07/16 03:56:38;;;;;;;4.750001;4.35;;;;;;;14.26;56.50293;95665.69;;;;
2022/07/16 03:57:38;;;;;;;4.750001;4.35;;;;;;;14.26;56.50293;95665.69;;;;
2022/07/16 03:58:39;;;;;;;4.750001;4.35;;;;;;;14.26;56.50293;95665.69;;;;
2022/07/16 03:59:40;;;;;;;4.750001;4.35;;;;;;;14.26;56.50293;95665.69;;;;
2022/07/16 04:00:41;;;;;;;4.750001;4.35;;;;;;;14.26;56.50293;95665.69;;;;
2022/07/16 04:01:41;;;;;;;4.750001;4.35;;;;;;;14.26;56.50293;95665.69;;;;
2022/07/16 04:02:42;;;;;;;4.750001;4.35;;;;;;;14.26;56.50293;95665.69;;;;
2022/07/16 04:03:43;;;;;;;4.750001;4.35;;;;;;;14.26;56.50293;95665.69;;;;
2022/07/16 04:04:43;;;;;;;4.750001;4.35;;;;;;;14.26;56.50293;95665.69;;;;
2022/07/16 04:05:44;;;;;;;4.750001;4.35;;;;;;;14.26;56.50293;95665.69;;;;
2022/07/16 04:06:45;;;;;;;4.750001;4.35;;;;;;;14.26;56.50293;95665.69;;;;
2022/07/16 04:07:45;;;;;;;4.750001;4.35;;;;;;;14.26;56.50293;95665.69;;;;
2022/07/16 04:08:45;;;;;;;4.750001;4.35;;;;;;;14.26;56.50293;95665.69;;;;
2022/07/16 04:09:46;;;;;;;4.750001;4.35;;;;;;;14.26;56.50293;95665.69;;;;
2022/07/16 04:10:47;;;;;;;4.750001;4.35;;;;;;;14.26;56.50293;95665.69;;;;
2022/07/16 04:11:47;;;;;;;4.750001;4.35;;;;;;;14.26;56.50293;95665.69;;;;
2022/07/16 04:12:48;;;;;;;4.750001;4.35;;;;;;;14.26;56.50293;95665.69;;;;
2022/07/16 04:13:48;;;;;;;4.750001;4.35;;;;;;;14.26;56.50293;95665.69;;;;
2022/07/16 04:14:48;;;;;;;4.750001;4.35;;;;;;;14.26;56.50293;95665.69;;;;
2022/07/16 04:15:49;;;;;;;4.750001;4.35;;;;;;;14.26;56.50293;95665.69;;;;
2022/07/16 04:16:50;;;;;;;5.9;4.6;;;;;;;14.35;57.28809;95683.44;;;;
2022/07/16 04:17:50;;;;;;;5.9;4.6;;;;;;;14.35;57.28809;95683.44;;;;
2022/07/16 04:18:51;;;;;;;5.9;4.6;;;;;;;14.35;57.28809;95683.44;;;;
2022/07/16 04:19:51;;;;;;;5.9;4.6;;;;;;;14.35;57.28809;95683.44;;;;
2022/07/16 04:20:52;;;;;;;5.9;4.6;;;;;;;14.35;57.28809;95683.44;;;;
2022/07/16 04:21:52;;;;;;;5.9;4.6;;;;;;;14.35;57.28809;95683.44;;;;
2022/07/16 04:22:53;;;;;;;5.9;4.6;;;;;;;14.35;57.28809;95683.44;;;;
2022/07/16 04:23:53;;;;;;;5.9;4.6;;;;;;;14.35;57.28809;95683.44;;;;
2022/07/16 04:24:54;;;;;;;5.9;4.6;;;;;;;14.35;57.28809;95683.44;;;;
2022/07/16 04:25:54;;;;;;;5.9;4.6;;;;;;;14.35;57.28809;95683.44;;;;
2022/07/16 04:26:55;;;;;;;5.9;4.6;;;;;;;14.35;57.28809;95683.44;;;;
2022/07/16 04:27:56;;;;;;;5.1;4.249999;;;;;;;14.48;57.38281;95680.1;;;;
2022/07/16 04:28:56;;;;;;;5.1;4.249999;;;;;;;14.48;57.38281;95680.1;;;;
2022/07/16 04:29:57;;;;;;;5.1;4.249999;;;;;;;14.48;57.38281;95680.1;;;;
2022/07/16 04:30:57;;;;;;;5.1;4.249999;;;;;;;14.48;57.38281;95680.1;;;;
2022/07/16 04:31:58;;;;;;;5.1;4.249999;;;;;;;14.48;57.38281;95680.1;;;;
2022/07/16 04:32:58;;;;;;;5.1;4.249999;;;;;;;14.48;57.38281;95680.1;;;;
2022/07/16 04:33:59;;;;;;;5.1;4.249999;;;;;;;14.48;57.38281;95680.1;;;;
2022/07/16 04:34:59;;;;;;;5.1;4.249999;;;;;;;14.48;57.38281;95680.1;;;;
2022/07/16 04:36:02;;;;;;;5.1;4.249999;;;;;;;14.48;57.38281;95680.1;;;;
2022/07/16 04:37:03;;;;;;;5.1;4.249999;;;;;;;14.48;57.38281;95680.1;;;;
2022/07/16 04:38:04;;;;;;;6.25;4.5;;;;;;;14.66;57.28613;95693.86;;;;
2022/07/16 04:39:04;;;;;;;6.25;4.5;;;;;;;14.66;57.28613;95693.86;;;;
2022/07/16 04:40:05;;;;;;;6.25;4.5;;;;;;;14.66;57.28613;95693.86;;;;
2022/07/16 04:41:08;;;;;;;6.25;4.5;;;;;;;14.66;57.28613;95693.86;;;;
2022/07/16 04:42:09;;;;;;;6.25;4.5;;;;;;;14.66;57.28613;95693.86;;;;
2022/07/16 04:43:09;;;;;;;6.25;4.5;;;;;;;14.66;57.28613;95693.86;;;;
2022/07/16 04:44:10;;;;;;;6.25;4.5;;;;;;;14.66;57.28613;95693.86;;;;
2022/07/16 04:45:10;;;;;;;6.25;4.5;;;;;;;14.66;57.28613;95693.86;;;;
2022/07/16 04:46:12;;;;;;;6.25;4.5;;;;;;;14.66;57.28613;95693.86;;;;
2022/07/16 04:47:12;;;;;;;6.25;4.5;;;;;;;14.66;57.28613;95693.86;;;;
2022/07/16 04:48:13;;;;;;;6.25;4.5;;;;;;;14.66;57.28613;95693.86;;;;
2022/07/16 04:49:13;;;;;;;5.65;4.4;;;;;;;14.88;57.3252;95692.7;;;;
2022/07/16 04:50:14;;;;;;;5.65;4.4;;;;;;;14.88;57.3252;95692.7;;;;
2022/07/16 04:51:14;;;;;;;5.65;4.4;;;;;;;14.88;57.3252;95692.7;;;;
2022/07/16 04:52:16;;;;;;;5.65;4.4;;;;;;;14.88;57.3252;95692.7;;;;
2022/07/16 04:53:16;;;;;;;5.65;4.4;;;;;;;14.88;57.3252;95692.7;;;;
2022/07/16 04:54:17;;;;;;;5.65;4.4;;;;;;;14.88;57.3252;95692.7;;;;
2022/07/16 04:55:17;;;;;;;5.65;4.4;;;;;;;14.88;57.3252;95692.7;;;;
2022/07/16 04:56:18;;;;;;;5.65;4.4;;;;;;;14.88;57.3252;95692.7;;;;
2022/07/16 04:57:18;;;;;;;5.65;4.4;;;;;;;14.88;57.3252;95692.7;;;;
2022/07/16 04:58:19;;;;;;;5.65;4.4;;;;;;;14.88;57.3252;95692.7;;;;
2022/07/16 04:59:19;;;;;;;5.65;4.4;;;;;;;14.88;57.3252;95692.7;;;;
2022/07/16 05:00:20;;;;;;;5.3;4.45;;;;;;;15.46;57.08203;95690.66;;;;
2022/07/16 05:01:20;;;;;;;5.3;4.45;;;;;;;15.46;57.08203;95690.66;;;;
2022/07/16 05:03:25;;;;;;;5.3;4.45;;;;;;;15.46;57.08203;95690.66;;;;
2022/07/16 05:04:26;;;;;;;5.3;4.45;;;;;;;15.46;57.08203;95690.66;;;;
2022/07/16 05:05:26;;;;;;;5.3;4.45;;;;;;;15.46;57.08203;95690.66;;;;
2022/07/16 05:06:30;;;;;;;5.3;4.45;;;;;;;15.46;57.08203;95690.66;;;;
2022/07/16 05:07:31;;;;;;;5.3;4.45;;;;;;;15.46;57.08203;95690.66;;;;
2022/07/16 05:08:31;;;;;;;5.3;4.45;;;;;;;15.46;57.08203;95690.66;;;;
2022/07/16 05:09:32;;;;;;;5.3;4.45;;;;;;;15.46;57.08203;95690.66;;;;
2022/07/16 05:10:32;;;;;;;5.199999;4.4;;;;;;;15.95;56.51172;95700.83;;;;
2022/07/16 05:11:33;;;;;;;5.199999;4.4;;;;;;;15.95;56.51172;95700.83;;;;
2022/07/16 05:12:33;;;;;;;5.199999;4.4;;;;;;;15.95;56.51172;95700.83;;;;
2022/07/16 05:13:34;;;;;;;5.199999;4.4;;;;;;;15.95;56.51172;95700.83;;;;
2022/07/16 05:14:34;;;;;;;5.199999;4.4;;;;;;;15.95;56.51172;95700.83;;;;
2022/07/16 05:15:35;;;;;;;5.199999;4.4;;;;;;;15.95;56.51172;95700.83;;;;
2022/07/16 05:16:37;;;;;;;5.199999;4.4;;;;;;;15.95;56.51172;95700.83;;;;
2022/07/16 05:17:37;;;;;;;5.199999;4.4;;;;;;;15.95;56.51172;95700.83;;;;
2022/07/16 05:18:38;;;;;;;5.199999;4.4;;;;;;;15.95;56.51172;95700.83;;;;
2022/07/16 05:19:38;;;;;;;5.199999;4.4;;;;;;;15.95;56.51172;95700.83;;;;
2022/07/16 05:20:39;;;;;;;5.199999;4.4;;;;;;;15.95;56.51172;95700.83;;;;
2022/07/16 05:21:39;;;;;;;5.7;4.149999;;;;;;;16.24;56.40625;95704.76;;;;
2022/07/16 05:22:40;;;;;;;5.7;4.149999;;;;;;;16.24;56.40625;95704.76;;;;
2022/07/16 05:23:41;;;;;;;5.7;4.149999;;;;;;;16.24;56.40625;95704.76;;;;
2022/07/16 05:24:41;;;;;;;5.7;4.149999;;;;;;;16.24;56.40625;95704.76;;;;
2022/07/16 05:25:42;;;;;;;5.7;4.149999;;;;;;;16.24;56.40625;95704.76;;;;
2022/07/16 05:26:42;;;;;;;5.7;4.149999;;;;;;;16.24;56.40625;95704.76;;;;
2022/07/16 05:27:43;;;;;;;5.7;4.149999;;;;;;;16.24;56.40625;95704.76;;;;
2022/07/16 05:28:44;;;;;;;5.7;4.149999;;;;;;;16.24;56.40625;95704.76;;;;
2022/07/16 05:29:44;;;;;;;5.7;4.149999;;;;;;;16.24;56.40625;95704.76;;;;
2022/07/16 05:30:45;;;;;;;5.7;4.149999;;;;;;;16.24;56.40625;95704.76;;;;
2022/07/16 05:31:45;;;;;;;5.9;4.1;;;;;;;16.45;56.41016;95705.44;;;;
2022/07/16 05:32:46;;;;;;;5.9;4.1;;;;;;;16.45;56.41016;95705.44;;;;
2022/07/16 05:33:46;;;;;;;5.9;4.1;;;;;;;16.45;56.41016;95705.44;;;;
2022/07/16 05:34:46;;;;;;;5.9;4.1;;;;;;;16.45;56.41016;95705.44;;;;
2022/07/16 05:35:47;;;;;;;5.9;4.1;;;;;;;16.45;56.41016;95705.44;;;;
2022/07/16 05:36:47;;;;;;;5.9;4.1;;;;;;;16.45;56.41016;95705.44;;;;
2022/07/16 05:37:48;;;;;;;5.9;4.1;;;;;;;16.45;56.41016;95705.44;;;;
2022/07/16 05:38:48;;;;;;;5.9;4.1;;;;;;;16.45;56.41016;95705.44;;;;
2022/07/16 05:39:49;;;;;;;5.9;4.1;;;;;;;16.45;56.41016;95705.44;;;;
2022/07/16 05:40:49;;;;;;;5.9;4.1;;;;;;;16.45;56.41016;95705.44;;;;
2022/07/16 05:41:50;;;;;;;5.9;4.1;;;;;;;16.45;56.41016;95705.44;;;;
2022/07/16 05:42:50;;;;;;;5.800001;3.75;;;;;;;16.77;56.07813;95707.03;;;;
2022/07/16 05:43:51;;;;;;;5.800001;3.75;;;;;;;16.77;56.07813;95707.03;;;;
2022/07/16 05:44:52;;;;;;;5.800001;3.75;;;;;;;16.77;56.07813;95707.03;;;;
2022/07/16 05:45:52;;;;;;;5.800001;3.75;;;;;;;16.77;56.07813;95707.03;;;;
2022/07/16 05:46:53;;;;;;;5.800001;3.75;;;;;;;16.77;56.07813;95707.03;;;;
2022/07/16 05:47:53;;;;;;;5.800001;3.75;;;;;;;16.77;56.07813;95707.03;;;;
2022/07/16 05:48:54;;;;;;;5.800001;3.75;;;;;;;16.77;56.07813;95707.03;;;;
2022/07/16 05:49:54;;;;;;;5.800001;3.75;;;;;;;16.77;56.07813;95707.03;;;;
2022/07/16 05:50:55;;;;;;;5.800001;3.75;;;;;;;16.77;56.07813;95707.03;;;;
2022/07/16 05:51:55;;;;;;;5.800001;3.75;;;;;;;16.77;56.07813;95707.03;;;;
2022/07/16 05:52:56;;;;;;;4.35;3.85;;;;;;;17.04;55.7832;95711.25;;;;